Portada
METAR-TAF:

METAR-TAF

Aeroports :

Xiraz, Iran

latitud: 29-32N, longitud: 052-35E, altitud: 1486 m

Observació

L'informe es va fer fa 9 minuts, a les 22:30 UTC
Vent calma
Temperatura 2°C
Humitat 32%
Pressió 1023 hPa
Visibilitat 10 km o més
sense núvols per sota de 1500 mi sense presència de cumulonimbus.

METAR: OISS 132230Z 00000KT CAVOK 02/M13 Q1023 A3021

Hora: 02:09 (22:39 UTC)

Pronòstic

L'informe es va fer fa 5 hores i 9 minuts, a les 17:30 UTC
Pronòstic vàlid del 13 a les 18 UTC al 14 a les 24 UTC
Vent 6 kt del Oest
Visibilitat: 8000 m

TAF: OISS 131730Z 1318/1424 27006KT 8000 NSC

Observacions i pronòstics meteorològics de més de 4000 aeroports (METAR i TAF).

Les estacions disponibles són els punts grocs i vermells al mapa.

Posi el ratolí al punt desitjat per veure el nom de l'estació.

Feu clic per veure les observacions i els pronòstics meteorològics.

Per canviar el mapa: feu clic els botons verds amb una creu de color negre per apropar; al botó verd amb un guió per allunyar la imatge; o en les fletxes verdes per a mapes adjacents.


METAR-TAF: